Rosewood, Illinois
Current Conditions -  °F | °C
As of 4:50 PM on Friday 21 Nov 2014 (Local Time) from KALN Reporting Station
Broken Clouds Broken Clouds  
Wind Chill:   Ceiling: 4300
Heat Index:   Visibility: 10mi
Dew Point: -9°   Wind: 7mph
Humidity: 39%   Direction: 120°ESE
Pressure: 30.31"   Gusts: NA
Location:  38.8713°N, 90.0443°W
Report Text: KALN 212250Z 12006KT 10SM BKN043 04/M09 A3031
Loading
Personal Weather Stations






























Interactive Weather Map New forecast layout! Learn more

10-Day Weather Forecast

Advertisements
Track Severe Weather on mobile